sensor_id;sensor_type;location;lat;lon;timestamp;P1;durP1;ratioP1;P2;durP2;ratioP2
735;SDS011;352;48.626;9.238;2023-05-07T00:02:17;5.53;;;4.37;;
735;SDS011;352;48.626;9.238;2023-05-07T00:04:44;4.10;;;3.80;;
735;SDS011;352;48.626;9.238;2023-05-07T00:07:10;5.13;;;3.73;;
735;SDS011;352;48.626;9.238;2023-05-07T00:09:37;4.63;;;3.17;;
735;SDS011;352;48.626;9.238;2023-05-07T00:12:05;7.03;;;4.53;;
735;SDS011;352;48.626;9.238;2023-05-07T00:14:32;3.83;;;3.20;;
735;SDS011;352;48.626;9.238;2023-05-07T00:17:00;4.03;;;3.60;;
735;SDS011;352;48.626;9.238;2023-05-07T00:19:26;4.10;;;3.70;;
735;SDS011;352;48.626;9.238;2023-05-07T00:21:53;4.60;;;3.60;;
735;SDS011;352;48.626;9.238;2023-05-07T00:24:20;5.30;;;3.80;;
735;SDS011;352;48.626;9.238;2023-05-07T00:26:47;6.60;;;4.43;;
735;SDS011;352;48.626;9.238;2023-05-07T00:29:14;4.83;;;4.03;;
735;SDS011;352;48.626;9.238;2023-05-07T00:31:41;4.93;;;4.23;;
735;SDS011;352;48.626;9.238;2023-05-07T00:34:09;3.70;;;3.40;;
735;SDS011;352;48.626;9.238;2023-05-07T00:36:36;6.40;;;3.67;;
735;SDS011;352;48.626;9.238;2023-05-07T00:39:02;3.33;;;3.03;;
735;SDS011;352;48.626;9.238;2023-05-07T00:41:29;4.00;;;3.70;;
735;SDS011;352;48.626;9.238;2023-05-07T00:43:56;3.90;;;3.47;;
735;SDS011;352;48.626;9.238;2023-05-07T00:46:23;4.60;;;4.17;;
735;SDS011;352;48.626;9.238;2023-05-07T00:48:50;4.07;;;3.70;;
735;SDS011;352;48.626;9.238;2023-05-07T00:51:19;4.57;;;3.43;;
735;SDS011;352;48.626;9.238;2023-05-07T00:53:46;4.73;;;4.00;;
735;SDS011;352;48.626;9.238;2023-05-07T00:56:13;4.57;;;4.17;;
735;SDS011;352;48.626;9.238;2023-05-07T00:58:40;5.23;;;4.23;;
735;SDS011;352;48.626;9.238;2023-05-07T01:01:06;4.90;;;4.60;;
735;SDS011;352;48.626;9.238;2023-05-07T01:03:33;4.37;;;3.80;;
735;SDS011;352;48.626;9.238;2023-05-07T01:06:00;4.60;;;3.93;;
735;SDS011;352;48.626;9.238;2023-05-07T01:08:30;5.00;;;3.73;;
735;SDS011;352;48.626;9.238;2023-05-07T01:11:00;4.40;;;4.00;;
735;SDS011;352;48.626;9.238;2023-05-07T01:13:26;5.40;;;4.37;;
735;SDS011;352;48.626;9.238;2023-05-07T01:15:53;4.60;;;4.20;;
735;SDS011;352;48.626;9.238;2023-05-07T01:18:20;5.43;;;4.50;;
735;SDS011;352;48.626;9.238;2023-05-07T01:20:47;4.20;;;3.90;;
735;SDS011;352;48.626;9.238;2023-05-07T01:23:15;5.83;;;4.60;;
735;SDS011;352;48.626;9.238;2023-05-07T01:25:43;4.80;;;4.20;;
735;SDS011;352;48.626;9.238;2023-05-07T01:28:17;6.70;;;4.57;;
735;SDS011;352;48.626;9.238;2023-05-07T01:30:44;5.17;;;4.67;;
735;SDS011;352;48.626;9.238;2023-05-07T01:33:13;4.47;;;4.07;;
735;SDS011;352;48.626;9.238;2023-05-07T01:35:45;5.57;;;4.00;;
735;SDS011;352;48.626;9.238;2023-05-07T01:38:13;6.90;;;4.20;;
735;SDS011;352;48.626;9.238;2023-05-07T01:40:42;4.40;;;4.00;;
735;SDS011;352;48.626;9.238;2023-05-07T01:43:09;4.63;;;4.23;;
735;SDS011;352;48.626;9.238;2023-05-07T01:45:36;6.30;;;4.00;;
735;SDS011;352;48.626;9.238;2023-05-07T01:48:05;4.80;;;4.30;;
735;SDS011;352;48.626;9.238;2023-05-07T01:50:32;5.30;;;4.07;;
735;SDS011;352;48.626;9.238;2023-05-07T01:53:00;4.57;;;4.17;;
735;SDS011;352;48.626;9.238;2023-05-07T01:55:29;4.10;;;3.80;;
735;SDS011;352;48.626;9.238;2023-05-07T01:57:56;4.80;;;4.00;;
735;SDS011;352;48.626;9.238;2023-05-07T02:00:23;4.30;;;3.90;;
735;SDS011;352;48.626;9.238;2023-05-07T02:02:50;4.73;;;4.33;;
735;SDS011;352;48.626;9.238;2023-05-07T02:05:17;4.00;;;3.70;;
735;SDS011;352;48.626;9.238;2023-05-07T02:07:44;4.33;;;3.80;;
735;SDS011;352;48.626;9.238;2023-05-07T02:10:11;4.50;;;4.17;;
735;SDS011;352;48.626;9.238;2023-05-07T02:12:39;5.43;;;4.00;;
735;SDS011;352;48.626;9.238;2023-05-07T02:15:06;4.23;;;3.93;;
735;SDS011;352;48.626;9.238;2023-05-07T02:17:33;4.40;;;4.03;;
735;SDS011;352;48.626;9.238;2023-05-07T02:20:02;6.07;;;3.67;;
735;SDS011;352;48.626;9.238;2023-05-07T02:22:29;4.87;;;4.27;;
735;SDS011;352;48.626;9.238;2023-05-07T02:24:56;4.30;;;3.90;;
735;SDS011;352;48.626;9.238;2023-05-07T02:27:23;4.47;;;3.97;;
735;SDS011;352;48.626;9.238;2023-05-07T02:29:51;4.80;;;4.03;;
735;SDS011;352;48.626;9.238;2023-05-07T02:32:17;4.63;;;3.80;;
735;SDS011;352;48.626;9.238;2023-05-07T02:34:44;4.37;;;3.97;;
735;SDS011;352;48.626;9.238;2023-05-07T02:37:11;4.80;;;3.83;;
735;SDS011;352;48.626;9.238;2023-05-07T02:39:38;5.37;;;3.70;;
735;SDS011;352;48.626;9.238;2023-05-07T02:42:05;4.00;;;3.60;;
735;SDS011;352;48.626;9.238;2023-05-07T02:44:31;6.20;;;4.20;;
735;SDS011;352;48.626;9.238;2023-05-07T02:46:59;4.90;;;3.93;;
735;SDS011;352;48.626;9.238;2023-05-07T02:49:26;6.57;;;4.20;;
735;SDS011;352;48.626;9.238;2023-05-07T02:51:53;3.53;;;3.23;;
735;SDS011;352;48.626;9.238;2023-05-07T02:54:20;4.20;;;3.80;;
735;SDS011;352;48.626;9.238;2023-05-07T02:56:47;3.83;;;3.50;;
735;SDS011;352;48.626;9.238;2023-05-07T02:59:13;3.90;;;3.50;;
735;SDS011;352;48.626;9.238;2023-05-07T03:01:40;4.43;;;4.03;;
735;SDS011;352;48.626;9.238;2023-05-07T03:04:10;3.97;;;3.57;;
735;SDS011;352;48.626;9.238;2023-05-07T03:06:36;4.50;;;4.03;;
735;SDS011;352;48.626;9.238;2023-05-07T03:09:03;4.33;;;3.90;;
735;SDS011;352;48.626;9.238;2023-05-07T03:11:30;7.63;;;4.30;;
735;SDS011;352;48.626;9.238;2023-05-07T03:13:57;4.17;;;3.80;;
735;SDS011;352;48.626;9.238;2023-05-07T03:16:23;4.07;;;3.67;;
735;SDS011;352;48.626;9.238;2023-05-07T03:18:50;4.20;;;3.80;;
735;SDS011;352;48.626;9.238;2023-05-07T03:21:18;4.73;;;4.00;;
735;SDS011;352;48.626;9.238;2023-05-07T03:23:45;6.20;;;3.77;;
735;SDS011;352;48.626;9.238;2023-05-07T03:26:12;4.33;;;4.03;;
735;SDS011;352;48.626;9.238;2023-05-07T03:28:39;4.40;;;3.47;;
735;SDS011;352;48.626;9.238;2023-05-07T03:31:06;4.23;;;3.83;;
735;SDS011;352;48.626;9.238;2023-05-07T03:33:32;5.83;;;4.40;;
735;SDS011;352;48.626;9.238;2023-05-07T03:36:00;4.00;;;3.70;;
735;SDS011;352;48.626;9.238;2023-05-07T03:38:28;4.43;;;3.53;;
735;SDS011;352;48.626;9.238;2023-05-07T03:40:55;4.87;;;3.63;;
735;SDS011;352;48.626;9.238;2023-05-07T03:43:21;4.20;;;3.90;;
735;SDS011;352;48.626;9.238;2023-05-07T03:45:48;3.80;;;3.50;;
735;SDS011;352;48.626;9.238;2023-05-07T03:48:15;4.97;;;4.27;;
735;SDS011;352;48.626;9.238;2023-05-07T03:50:41;4.93;;;4.30;;
735;SDS011;352;48.626;9.238;2023-05-07T03:53:08;5.70;;;4.40;;
735;SDS011;352;48.626;9.238;2023-05-07T03:55:36;5.00;;;4.40;;
735;SDS011;352;48.626;9.238;2023-05-07T03:58:03;3.73;;;3.40;;
735;SDS011;352;48.626;9.238;2023-05-07T04:00:30;4.63;;;4.23;;
735;SDS011;352;48.626;9.238;2023-05-07T04:02:58;3.97;;;3.60;;
735;SDS011;352;48.626;9.238;2023-05-07T04:05:25;4.47;;;4.00;;
735;SDS011;352;48.626;9.238;2023-05-07T04:07:52;4.77;;;3.90;;
735;SDS011;352;48.626;9.238;2023-05-07T04:10:19;4.60;;;3.80;;
735;SDS011;352;48.626;9.238;2023-05-07T04:12:47;4.43;;;4.03;;
735;SDS011;352;48.626;9.238;2023-05-07T04:15:13;4.10;;;3.70;;
735;SDS011;352;48.626;9.238;2023-05-07T04:17:40;4.20;;;3.90;;
735;SDS011;352;48.626;9.238;2023-05-07T04:20:08;3.90;;;3.60;;
735;SDS011;352;48.626;9.238;2023-05-07T04:22:36;5.93;;;4.87;;
735;SDS011;352;48.626;9.238;2023-05-07T04:25:03;5.40;;;4.00;;
735;SDS011;352;48.626;9.238;2023-05-07T04:27:30;4.87;;;4.20;;
735;SDS011;352;48.626;9.238;2023-05-07T04:29:58;4.57;;;4.07;;
735;SDS011;352;48.626;9.238;2023-05-07T04:32:25;4.27;;;3.70;;
735;SDS011;352;48.626;9.238;2023-05-07T04:34:54;4.67;;;4.27;;
735;SDS011;352;48.626;9.238;2023-05-07T04:37:20;4.30;;;3.90;;
735;SDS011;352;48.626;9.238;2023-05-07T04:39:47;4.37;;;3.97;;
735;SDS011;352;48.626;9.238;2023-05-07T04:42:14;4.57;;;4.17;;
735;SDS011;352;48.626;9.238;2023-05-07T04:44:42;5.30;;;4.37;;
735;SDS011;352;48.626;9.238;2023-05-07T04:47:11;5.33;;;3.90;;
735;SDS011;352;48.626;9.238;2023-05-07T04:49:38;4.47;;;4.07;;
735;SDS011;352;48.626;9.238;2023-05-07T04:52:05;4.20;;;3.90;;
735;SDS011;352;48.626;9.238;2023-05-07T04:54:31;4.77;;;4.37;;
735;SDS011;352;48.626;9.238;2023-05-07T04:56:58;4.17;;;3.87;;
735;SDS011;352;48.626;9.238;2023-05-07T04:59:25;6.80;;;4.00;;
735;SDS011;352;48.626;9.238;2023-05-07T05:01:51;5.33;;;4.50;;
735;SDS011;352;48.626;9.238;2023-05-07T05:04:19;4.70;;;4.20;;
735;SDS011;352;48.626;9.238;2023-05-07T05:06:46;6.20;;;4.03;;
735;SDS011;352;48.626;9.238;2023-05-07T05:09:13;10.23;;;9.43;;
735;SDS011;352;48.626;9.238;2023-05-07T05:11:41;8.57;;;7.77;;
735;SDS011;352;48.626;9.238;2023-05-07T05:14:07;11.40;;;5.67;;
735;SDS011;352;48.626;9.238;2023-05-07T05:16:34;4.63;;;4.20;;
735;SDS011;352;48.626;9.238;2023-05-07T05:21:33;4.37;;;4.07;;
735;SDS011;352;48.626;9.238;2023-05-07T05:24:00;4.40;;;4.10;;
735;SDS011;352;48.626;9.238;2023-05-07T05:26:27;6.63;;;4.10;;
735;SDS011;352;48.626;9.238;2023-05-07T05:28:54;5.03;;;4.27;;
735;SDS011;352;48.626;9.238;2023-05-07T05:31:20;4.60;;;4.13;;
735;SDS011;352;48.626;9.238;2023-05-07T05:33:47;4.80;;;4.10;;
735;SDS011;352;48.626;9.238;2023-05-07T05:36:14;4.90;;;4.50;;
735;SDS011;352;48.626;9.238;2023-05-07T05:38:42;4.70;;;4.30;;
735;SDS011;352;48.626;9.238;2023-05-07T05:41:09;5.40;;;4.00;;
735;SDS011;352;48.626;9.238;2023-05-07T05:43:36;4.37;;;3.80;;
735;SDS011;352;48.626;9.238;2023-05-07T05:46:02;5.23;;;4.07;;
735;SDS011;352;48.626;9.238;2023-05-07T05:48:30;7.07;;;4.87;;
735;SDS011;352;48.626;9.238;2023-05-07T05:50:57;4.30;;;4.00;;
735;SDS011;352;48.626;9.238;2023-05-07T05:53:24;4.10;;;3.80;;
735;SDS011;352;48.626;9.238;2023-05-07T05:55:52;3.67;;;3.37;;
735;SDS011;352;48.626;9.238;2023-05-07T05:58:18;4.60;;;3.27;;
735;SDS011;352;48.626;9.238;2023-05-07T06:00:45;3.90;;;3.53;;
735;SDS011;352;48.626;9.238;2023-05-07T06:03:13;4.03;;;3.73;;
735;SDS011;352;48.626;9.238;2023-05-07T06:05:40;4.03;;;3.33;;
735;SDS011;352;48.626;9.238;2023-05-07T06:08:06;3.30;;;3.00;;
735;SDS011;352;48.626;9.238;2023-05-07T06:10:34;3.80;;;3.50;;
735;SDS011;352;48.626;9.238;2023-05-07T06:13:03;3.60;;;3.40;;
735;SDS011;352;48.626;9.238;2023-05-07T06:15:30;4.00;;;3.47;;
735;SDS011;352;48.626;9.238;2023-05-07T06:17:56;4.27;;;3.80;;
735;SDS011;352;48.626;9.238;2023-05-07T06:20:23;4.97;;;4.53;;
735;SDS011;352;48.626;9.238;2023-05-07T06:22:50;4.63;;;4.07;;
735;SDS011;352;48.626;9.238;2023-05-07T06:25:16;3.53;;;3.20;;
735;SDS011;352;48.626;9.238;2023-05-07T06:27:43;4.80;;;3.37;;
735;SDS011;352;48.626;9.238;2023-05-07T06:30:12;3.80;;;3.50;;
735;SDS011;352;48.626;9.238;2023-05-07T06:32:39;3.90;;;3.57;;
735;SDS011;352;48.626;9.238;2023-05-07T06:35:07;5.33;;;4.07;;
735;SDS011;352;48.626;9.238;2023-05-07T06:37:36;4.03;;;3.37;;
735;SDS011;352;48.626;9.238;2023-05-07T06:40:03;3.90;;;3.60;;
735;SDS011;352;48.626;9.238;2023-05-07T06:42:32;4.40;;;4.00;;
735;SDS011;352;48.626;9.238;2023-05-07T06:44:58;3.70;;;3.40;;
735;SDS011;352;48.626;9.238;2023-05-07T06:47:27;3.70;;;3.47;;
735;SDS011;352;48.626;9.238;2023-05-07T06:49:54;4.13;;;3.83;;
735;SDS011;352;48.626;9.238;2023-05-07T06:52:20;4.30;;;4.00;;
735;SDS011;352;48.626;9.238;2023-05-07T06:54:47;5.13;;;3.50;;
735;SDS011;352;48.626;9.238;2023-05-07T06:57:14;5.70;;;3.70;;
735;SDS011;352;48.626;9.238;2023-05-07T06:59:40;5.10;;;3.70;;
735;SDS011;352;48.626;9.238;2023-05-07T07:02:07;6.13;;;4.10;;
735;SDS011;352;48.626;9.238;2023-05-07T07:04:35;4.30;;;4.00;;
735;SDS011;352;48.626;9.238;2023-05-07T07:07:02;4.27;;;3.97;;
735;SDS011;352;48.626;9.238;2023-05-07T07:09:29;4.70;;;4.40;;
735;SDS011;352;48.626;9.238;2023-05-07T07:11:56;4.70;;;4.40;;
735;SDS011;352;48.626;9.238;2023-05-07T07:14:22;5.10;;;4.70;;
735;SDS011;352;48.626;9.238;2023-05-07T07:16:49;4.90;;;4.40;;
735;SDS011;352;48.626;9.238;2023-05-07T07:19:16;4.47;;;4.07;;
735;SDS011;352;48.626;9.238;2023-05-07T07:21:44;4.37;;;4.07;;
735;SDS011;352;48.626;9.238;2023-05-07T07:24:13;5.20;;;4.43;;
735;SDS011;352;48.626;9.238;2023-05-07T07:26:44;4.70;;;4.30;;
735;SDS011;352;48.626;9.238;2023-05-07T07:29:10;5.10;;;4.60;;
735;SDS011;352;48.626;9.238;2023-05-07T07:31:37;4.50;;;4.10;;
735;SDS011;352;48.626;9.238;2023-05-07T07:34:04;5.00;;;4.70;;
735;SDS011;352;48.626;9.238;2023-05-07T07:36:30;5.30;;;4.90;;
735;SDS011;352;48.626;9.238;2023-05-07T07:38:59;5.60;;;5.10;;
735;SDS011;352;48.626;9.238;2023-05-07T07:41:27;5.63;;;5.23;;
735;SDS011;352;48.626;9.238;2023-05-07T07:43:53;5.57;;;5.17;;
735;SDS011;352;48.626;9.238;2023-05-07T07:46:20;5.67;;;4.83;;
735;SDS011;352;48.626;9.238;2023-05-07T07:48:47;4.80;;;4.40;;
735;SDS011;352;48.626;9.238;2023-05-07T07:51:13;5.23;;;4.80;;
735;SDS011;352;48.626;9.238;2023-05-07T07:53:40;6.87;;;4.40;;
735;SDS011;352;48.626;9.238;2023-05-07T07:56:08;5.20;;;4.80;;
735;SDS011;352;48.626;9.238;2023-05-07T07:58:35;5.73;;;5.23;;
735;SDS011;352;48.626;9.238;2023-05-07T08:01:03;4.80;;;4.50;;
735;SDS011;352;48.626;9.238;2023-05-07T08:03:30;4.80;;;4.40;;
735;SDS011;352;48.626;9.238;2023-05-07T08:05:58;5.90;;;5.17;;
735;SDS011;352;48.626;9.238;2023-05-07T08:08:25;4.60;;;4.30;;
735;SDS011;352;48.626;9.238;2023-05-07T08:10:51;5.73;;;5.33;;
735;SDS011;352;48.626;9.238;2023-05-07T08:13:19;5.50;;;5.10;;
735;SDS011;352;48.626;9.238;2023-05-07T08:15:46;5.13;;;4.73;;
735;SDS011;352;48.626;9.238;2023-05-07T08:18:13;5.53;;;4.93;;
735;SDS011;352;48.626;9.238;2023-05-07T08:20:40;5.30;;;4.90;;
735;SDS011;352;48.626;9.238;2023-05-07T08:23:07;4.90;;;4.40;;
735;SDS011;352;48.626;9.238;2023-05-07T08:25:34;4.40;;;4.10;;
735;SDS011;352;48.626;9.238;2023-05-07T08:28:01;4.83;;;4.40;;
735;SDS011;352;48.626;9.238;2023-05-07T08:30:29;4.43;;;4.13;;
735;SDS011;352;48.626;9.238;2023-05-07T08:32:56;5.03;;;4.43;;
735;SDS011;352;48.626;9.238;2023-05-07T08:35:23;5.00;;;4.60;;
735;SDS011;352;48.626;9.238;2023-05-07T08:37:50;4.00;;;3.60;;
735;SDS011;352;48.626;9.238;2023-05-07T08:40:17;4.10;;;3.70;;
735;SDS011;352;48.626;9.238;2023-05-07T08:42:44;3.90;;;3.60;;
735;SDS011;352;48.626;9.238;2023-05-07T08:45:12;4.90;;;4.50;;
735;SDS011;352;48.626;9.238;2023-05-07T08:47:42;5.57;;;5.17;;
735;SDS011;352;48.626;9.238;2023-05-07T08:50:11;5.10;;;4.77;;
735;SDS011;352;48.626;9.238;2023-05-07T08:52:38;6.30;;;4.23;;
735;SDS011;352;48.626;9.238;2023-05-07T08:55:05;5.30;;;4.90;;
735;SDS011;352;48.626;9.238;2023-05-07T08:57:33;4.40;;;4.00;;
735;SDS011;352;48.626;9.238;2023-05-07T09:00:00;4.53;;;4.13;;
735;SDS011;352;48.626;9.238;2023-05-07T09:02:27;4.10;;;3.90;;
735;SDS011;352;48.626;9.238;2023-05-07T09:04:55;4.40;;;3.93;;
735;SDS011;352;48.626;9.238;2023-05-07T09:07:22;3.90;;;3.60;;
735;SDS011;352;48.626;9.238;2023-05-07T09:09:49;3.63;;;3.33;;
735;SDS011;352;48.626;9.238;2023-05-07T09:12:17;3.43;;;3.13;;
735;SDS011;352;48.626;9.238;2023-05-07T09:14:43;3.80;;;3.60;;
735;SDS011;352;48.626;9.238;2023-05-07T09:17:11;4.20;;;3.90;;
735;SDS011;352;48.626;9.238;2023-05-07T09:19:38;4.20;;;3.90;;
735;SDS011;352;48.626;9.238;2023-05-07T09:22:06;5.10;;;3.40;;
735;SDS011;352;48.626;9.238;2023-05-07T09:24:33;3.43;;;3.17;;
735;SDS011;352;48.626;9.238;2023-05-07T09:27:09;3.70;;;3.40;;
735;SDS011;352;48.626;9.238;2023-05-07T09:29:38;4.00;;;3.00;;
735;SDS011;352;48.626;9.238;2023-05-07T09:32:05;3.33;;;3.07;;
735;SDS011;352;48.626;9.238;2023-05-07T09:34:33;3.60;;;3.30;;
735;SDS011;352;48.626;9.238;2023-05-07T09:37:01;3.97;;;3.10;;
735;SDS011;352;48.626;9.238;2023-05-07T09:39:39;3.60;;;2.90;;
735;SDS011;352;48.626;9.238;2023-05-07T09:42:06;3.67;;;3.37;;
735;SDS011;352;48.626;9.238;2023-05-07T09:44:33;5.80;;;3.43;;
735;SDS011;352;48.626;9.238;2023-05-07T09:47:01;3.37;;;3.03;;
735;SDS011;352;48.626;9.238;2023-05-07T09:49:30;3.63;;;3.33;;
735;SDS011;352;48.626;9.238;2023-05-07T09:52:02;3.50;;;3.20;;
735;SDS011;352;48.626;9.238;2023-05-07T09:54:31;3.70;;;3.50;;
735;SDS011;352;48.626;9.238;2023-05-07T09:57:01;3.40;;;3.20;;
735;SDS011;352;48.626;9.238;2023-05-07T09:59:28;3.63;;;3.33;;
735;SDS011;352;48.626;9.238;2023-05-07T10:01:57;5.10;;;3.10;;
735;SDS011;352;48.626;9.238;2023-05-07T10:04:27;3.80;;;3.53;;
735;SDS011;352;48.626;9.238;2023-05-07T10:06:54;3.23;;;3.03;;
735;SDS011;352;48.626;9.238;2023-05-07T10:09:21;3.30;;;3.10;;
735;SDS011;352;48.626;9.238;2023-05-07T10:11:49;3.43;;;3.23;;
735;SDS011;352;48.626;9.238;2023-05-07T10:14:17;5.93;;;3.33;;
735;SDS011;352;48.626;9.238;2023-05-07T10:16:46;3.20;;;2.90;;
735;SDS011;352;48.626;9.238;2023-05-07T10:19:14;3.40;;;3.20;;
735;SDS011;352;48.626;9.238;2023-05-07T10:21:43;3.30;;;3.10;;
735;SDS011;352;48.626;9.238;2023-05-07T10:24:16;3.47;;;3.17;;
735;SDS011;352;48.626;9.238;2023-05-07T10:26:48;3.47;;;3.17;;
735;SDS011;352;48.626;9.238;2023-05-07T10:29:21;3.20;;;3.00;;
735;SDS011;352;48.626;9.238;2023-05-07T10:31:58;3.00;;;2.80;;
735;SDS011;352;48.626;9.238;2023-05-07T10:34:34;3.50;;;3.20;;
735;SDS011;352;48.626;9.238;2023-05-07T10:37:03;3.83;;;3.43;;
735;SDS011;352;48.626;9.238;2023-05-07T10:39:30;2.87;;;2.67;;
735;SDS011;352;48.626;9.238;2023-05-07T10:42:03;3.47;;;3.27;;
735;SDS011;352;48.626;9.238;2023-05-07T10:44:35;3.73;;;3.00;;
735;SDS011;352;48.626;9.238;2023-05-07T10:47:03;3.97;;;3.00;;
735;SDS011;352;48.626;9.238;2023-05-07T10:49:33;3.50;;;3.20;;
735;SDS011;352;48.626;9.238;2023-05-07T10:52:16;5.07;;;3.27;;
735;SDS011;352;48.626;9.238;2023-05-07T10:54:44;4.30;;;3.10;;
735;SDS011;352;48.626;9.238;2023-05-07T11:00:03;3.60;;;3.30;;
735;SDS011;352;48.626;9.238;2023-05-07T11:03:05;3.60;;;3.40;;
735;SDS011;352;48.626;9.238;2023-05-07T11:05:32;3.67;;;3.10;;
735;SDS011;352;48.626;9.238;2023-05-07T11:08:00;3.50;;;3.20;;
735;SDS011;352;48.626;9.238;2023-05-07T11:13:16;3.33;;;3.10;;
735;SDS011;352;48.626;9.238;2023-05-07T11:15:46;4.07;;;2.90;;
735;SDS011;352;48.626;9.238;2023-05-07T11:18:14;6.73;;;4.43;;
735;SDS011;352;48.626;9.238;2023-05-07T11:20:49;3.80;;;3.50;;
735;SDS011;352;48.626;9.238;2023-05-07T11:26:22;3.30;;;3.00;;
735;SDS011;352;48.626;9.238;2023-05-07T11:28:50;3.20;;;2.90;;
735;SDS011;352;48.626;9.238;2023-05-07T11:31:22;3.70;;;3.30;;
735;SDS011;352;48.626;9.238;2023-05-07T11:33:51;3.13;;;2.90;;
735;SDS011;352;48.626;9.238;2023-05-07T11:36:19;3.17;;;2.87;;
735;SDS011;352;48.626;9.238;2023-05-07T11:38:46;3.10;;;2.90;;
735;SDS011;352;48.626;9.238;2023-05-07T11:41:13;3.57;;;3.30;;
735;SDS011;352;48.626;9.238;2023-05-07T11:43:55;3.20;;;3.00;;
735;SDS011;352;48.626;9.238;2023-05-07T11:46:30;3.20;;;3.00;;
735;SDS011;352;48.626;9.238;2023-05-07T11:48:57;3.23;;;2.93;;
735;SDS011;352;48.626;9.238;2023-05-07T11:51:24;3.33;;;3.03;;
735;SDS011;352;48.626;9.238;2023-05-07T11:53:52;3.07;;;2.87;;
735;SDS011;352;48.626;9.238;2023-05-07T11:56:19;3.23;;;2.90;;
735;SDS011;352;48.626;9.238;2023-05-07T11:58:46;3.43;;;3.23;;
735;SDS011;352;48.626;9.238;2023-05-07T12:01:14;2.77;;;2.57;;
735;SDS011;352;48.626;9.238;2023-05-07T12:03:44;2.77;;;2.57;;
735;SDS011;352;48.626;9.238;2023-05-07T12:06:12;2.90;;;2.70;;
735;SDS011;352;48.626;9.238;2023-05-07T12:08:41;3.13;;;2.77;;
735;SDS011;352;48.626;9.238;2023-05-07T12:11:09;3.00;;;2.70;;
735;SDS011;352;48.626;9.238;2023-05-07T12:13:39;3.10;;;2.90;;
735;SDS011;352;48.626;9.238;2023-05-07T12:16:07;2.77;;;2.50;;
735;SDS011;352;48.626;9.238;2023-05-07T12:18:34;2.83;;;2.60;;
735;SDS011;352;48.626;9.238;2023-05-07T12:21:03;3.47;;;2.40;;
735;SDS011;352;48.626;9.238;2023-05-07T12:23:31;2.40;;;2.30;;
735;SDS011;352;48.626;9.238;2023-05-07T12:25:58;2.77;;;2.20;;
735;SDS011;352;48.626;9.238;2023-05-07T12:28:26;2.10;;;2.00;;
735;SDS011;352;48.626;9.238;2023-05-07T12:30:52;2.17;;;2.07;;
735;SDS011;352;48.626;9.238;2023-05-07T12:33:23;2.10;;;2.00;;
735;SDS011;352;48.626;9.238;2023-05-07T12:35:54;2.77;;;2.20;;
735;SDS011;352;48.626;9.238;2023-05-07T12:38:23;4.33;;;1.77;;
735;SDS011;352;48.626;9.238;2023-05-07T12:40:50;2.23;;;2.13;;
735;SDS011;352;48.626;9.238;2023-05-07T12:43:21;2.27;;;2.17;;
735;SDS011;352;48.626;9.238;2023-05-07T12:45:50;2.33;;;2.13;;
735;SDS011;352;48.626;9.238;2023-05-07T12:48:19;2.33;;;2.07;;
735;SDS011;352;48.626;9.238;2023-05-07T12:50:48;2.80;;;2.60;;
735;SDS011;352;48.626;9.238;2023-05-07T12:53:15;3.00;;;2.70;;
735;SDS011;352;48.626;9.238;2023-05-07T12:55:44;3.20;;;2.60;;
735;SDS011;352;48.626;9.238;2023-05-07T12:58:15;2.90;;;2.60;;
735;SDS011;352;48.626;9.238;2023-05-07T13:00:43;2.43;;;2.23;;
735;SDS011;352;48.626;9.238;2023-05-07T13:03:10;2.43;;;2.20;;
735;SDS011;352;48.626;9.238;2023-05-07T13:05:37;2.37;;;2.10;;
735;SDS011;352;48.626;9.238;2023-05-07T13:08:04;3.40;;;2.07;;
735;SDS011;352;48.626;9.238;2023-05-07T13:10:31;2.20;;;2.10;;
735;SDS011;352;48.626;9.238;2023-05-07T13:13:00;2.03;;;1.83;;
735;SDS011;352;48.626;9.238;2023-05-07T13:15:27;2.30;;;2.10;;
735;SDS011;352;48.626;9.238;2023-05-07T13:17:54;2.10;;;2.00;;
735;SDS011;352;48.626;9.238;2023-05-07T13:20:21;2.30;;;1.90;;
735;SDS011;352;48.626;9.238;2023-05-07T13:22:48;2.30;;;2.20;;
735;SDS011;352;48.626;9.238;2023-05-07T13:25:14;1.80;;;1.70;;
735;SDS011;352;48.626;9.238;2023-05-07T13:27:41;2.40;;;2.20;;
735;SDS011;352;48.626;9.238;2023-05-07T13:30:10;5.60;;;2.50;;
735;SDS011;352;48.626;9.238;2023-05-07T13:32:36;2.67;;;2.47;;
735;SDS011;352;48.626;9.238;2023-05-07T13:35:03;3.70;;;2.40;;
735;SDS011;352;48.626;9.238;2023-05-07T13:37:31;2.10;;;1.90;;
735;SDS011;352;48.626;9.238;2023-05-07T13:39:57;2.23;;;2.10;;
735;SDS011;352;48.626;9.238;2023-05-07T13:42:24;4.30;;;2.77;;
735;SDS011;352;48.626;9.238;2023-05-07T13:44:53;6.53;;;3.10;;
735;SDS011;352;48.626;9.238;2023-05-07T13:47:21;3.87;;;3.03;;
735;SDS011;352;48.626;9.238;2023-05-07T13:49:48;4.60;;;3.20;;
735;SDS011;352;48.626;9.238;2023-05-07T13:52:22;9.37;;;5.50;;
735;SDS011;352;48.626;9.238;2023-05-07T13:54:49;4.20;;;2.73;;
735;SDS011;352;48.626;9.238;2023-05-07T13:57:23;4.43;;;2.80;;
735;SDS011;352;48.626;9.238;2023-05-07T13:59:49;5.00;;;2.40;;
735;SDS011;352;48.626;9.238;2023-05-07T14:02:16;2.87;;;2.67;;
735;SDS011;352;48.626;9.238;2023-05-07T14:04:44;3.10;;;2.80;;
735;SDS011;352;48.626;9.238;2023-05-07T14:07:11;3.77;;;3.07;;
735;SDS011;352;48.626;9.238;2023-05-07T14:09:39;2.70;;;2.47;;
735;SDS011;352;48.626;9.238;2023-05-07T14:12:05;3.20;;;2.63;;
735;SDS011;352;48.626;9.238;2023-05-07T14:14:33;3.00;;;2.70;;
735;SDS011;352;48.626;9.238;2023-05-07T14:16:59;4.27;;;2.70;;
735;SDS011;352;48.626;9.238;2023-05-07T14:19:26;4.07;;;2.33;;
735;SDS011;352;48.626;9.238;2023-05-07T14:21:54;6.97;;;2.97;;
735;SDS011;352;48.626;9.238;2023-05-07T14:24:21;4.60;;;3.10;;
735;SDS011;352;48.626;9.238;2023-05-07T14:26:48;5.37;;;3.53;;
735;SDS011;352;48.626;9.238;2023-05-07T14:29:14;4.00;;;3.37;;
735;SDS011;352;48.626;9.238;2023-05-07T14:31:43;5.80;;;2.97;;
735;SDS011;352;48.626;9.238;2023-05-07T14:34:10;6.80;;;2.80;;
735;SDS011;352;48.626;9.238;2023-05-07T14:36:37;5.10;;;3.07;;
735;SDS011;352;48.626;9.238;2023-05-07T14:39:05;2.73;;;2.53;;
735;SDS011;352;48.626;9.238;2023-05-07T14:41:39;4.60;;;2.90;;
735;SDS011;352;48.626;9.238;2023-05-07T14:44:08;11.50;;;3.70;;
735;SDS011;352;48.626;9.238;2023-05-07T14:46:34;3.40;;;3.10;;
735;SDS011;352;48.626;9.238;2023-05-07T14:49:02;7.63;;;3.90;;
735;SDS011;352;48.626;9.238;2023-05-07T14:51:29;8.30;;;4.83;;
735;SDS011;352;48.626;9.238;2023-05-07T14:53:56;5.10;;;3.90;;
735;SDS011;352;48.626;9.238;2023-05-07T14:56:24;5.73;;;4.00;;
735;SDS011;352;48.626;9.238;2023-05-07T14:58:51;4.83;;;3.37;;
735;SDS011;352;48.626;9.238;2023-05-07T15:01:17;4.53;;;4.13;;
735;SDS011;352;48.626;9.238;2023-05-07T15:03:46;5.50;;;2.90;;
735;SDS011;352;48.626;9.238;2023-05-07T15:06:13;3.10;;;2.90;;
735;SDS011;352;48.626;9.238;2023-05-07T15:08:39;6.03;;;3.60;;
735;SDS011;352;48.626;9.238;2023-05-07T15:11:07;5.63;;;3.80;;
735;SDS011;352;48.626;9.238;2023-05-07T15:13:37;5.50;;;4.00;;
735;SDS011;352;48.626;9.238;2023-05-07T15:16:04;3.90;;;3.60;;
735;SDS011;352;48.626;9.238;2023-05-07T15:18:31;4.20;;;3.23;;
735;SDS011;352;48.626;9.238;2023-05-07T15:20:58;7.10;;;3.30;;
735;SDS011;352;48.626;9.238;2023-05-07T15:23:25;4.80;;;3.47;;
735;SDS011;352;48.626;9.238;2023-05-07T15:25:55;6.33;;;3.47;;
735;SDS011;352;48.626;9.238;2023-05-07T15:28:21;3.47;;;3.17;;
735;SDS011;352;48.626;9.238;2023-05-07T15:30:50;3.77;;;3.37;;
735;SDS011;352;48.626;9.238;2023-05-07T15:33:17;3.40;;;3.10;;
735;SDS011;352;48.626;9.238;2023-05-07T15:35:44;4.70;;;3.30;;
735;SDS011;352;48.626;9.238;2023-05-07T15:38:11;4.20;;;3.80;;
735;SDS011;352;48.626;9.238;2023-05-07T15:40:38;4.43;;;3.93;;
735;SDS011;352;48.626;9.238;2023-05-07T15:43:07;3.93;;;3.53;;
735;SDS011;352;48.626;9.238;2023-05-07T15:45:36;3.47;;;3.17;;
735;SDS011;352;48.626;9.238;2023-05-07T15:48:06;3.67;;;3.37;;
735;SDS011;352;48.626;9.238;2023-05-07T15:50:34;4.07;;;3.13;;
735;SDS011;352;48.626;9.238;2023-05-07T15:53:01;4.13;;;3.30;;
735;SDS011;352;48.626;9.238;2023-05-07T15:55:29;3.57;;;3.20;;
735;SDS011;352;48.626;9.238;2023-05-07T15:57:56;4.13;;;3.13;;
735;SDS011;352;48.626;9.238;2023-05-07T16:00:24;5.63;;;3.90;;